Time;durP1;ratioP1;P1;durP2;ratioP2;P2;SDS_P1;SDS_P2;PMS_P1;PMS_P2;Temp;Humidity;BMP_temperature;BMP_pressure;BME280_temperature;BME280_humidity;BME280_pressure;Samples;Min_cycle;Max_cycle;Signal;HPM_P1;HPM_P2
2022/07/03 00:01:03;;;;;;;3.47;1.90;;;17.90;99.90;;;;;;5024048;28;20119;-79
2022/07/03 00:03:29;;;;;;;3.50;1.92;;;17.90;99.90;;;;;;5031649;28;20033;-79
2022/07/03 00:05:55;;;;;;;4.18;2.35;;;17.80;99.90;;;;;;5029130;28;20050;-79
2022/07/03 00:08:20;;;;;;;4.95;2.60;;;17.80;99.90;;;;;;5030782;28;20029;-79
2022/07/03 00:10:46;;;;;;;6.88;2.75;;;17.70;99.90;;;;;;5028649;28;20038;-79
2022/07/03 00:13:12;;;;;;;3.25;2.92;;;17.60;99.90;;;;;;5029779;28;20046;-79
2022/07/03 00:15:38;;;;;;;3.05;2.63;;;17.60;99.90;;;;;;5030956;28;20064;-79
2022/07/03 00:18:04;;;;;;;2.55;2.25;;;17.50;99.90;;;;;;5024222;28;20042;-80
2022/07/03 00:20:35;;;;;;;3.72;2.80;;;17.40;99.90;;;;;;5025032;28;20037;-80
2022/07/03 00:23:04;;;;;;;5.95;3.00;;;17.40;99.90;;;;;;5017210;28;20038;-81
2022/07/03 00:25:33;;;;;;;5.57;3.05;;;17.40;99.90;;;;;;5022817;28;20484;-80
2022/07/03 00:27:59;;;;;;;4.68;3.00;;;17.40;99.90;;;;;;5019529;28;20520;-80
2022/07/03 00:30:25;;;;;;;3.75;2.47;;;17.40;99.90;;;;;;5028060;28;20037;-80
2022/07/03 00:32:52;;;;;;;4.53;3.00;;;17.40;99.90;;;;;;5020092;28;20037;-80
2022/07/03 00:35:18;;;;;;;4.32;2.60;;;17.40;99.90;;;;;;5025403;28;20084;-79
2022/07/03 00:37:44;;;;;;;2.92;2.70;;;17.40;99.90;;;;;;5027118;28;20065;-79
2022/07/03 00:40:10;;;;;;;5.47;2.85;;;17.40;99.90;;;;;;5025764;28;20427;-79
2022/07/03 00:42:39;;;;;;;2.95;2.67;;;17.40;99.90;;;;;;5017411;28;20091;-80
2022/07/03 00:45:07;;;;;;;3.67;2.88;;;17.40;99.90;;;;;;5023711;28;20085;-80
2022/07/03 00:47:36;;;;;;;3.55;2.30;;;17.40;99.90;;;;;;5027473;28;20029;-80
2022/07/03 00:50:06;;;;;;;4.75;2.75;;;17.30;99.90;;;;;;5018461;28;20072;-80
2022/07/03 00:52:33;;;;;;;2.53;2.33;;;17.30;99.90;;;;;;5024870;28;20488;-80
2022/07/03 00:55:00;;;;;;;5.65;3.35;;;17.20;99.90;;;;;;5019008;28;20045;-80
2022/07/03 00:57:29;;;;;;;4.40;3.67;;;17.20;99.90;;;;;;5022608;28;20045;-80
2022/07/03 00:59:57;;;;;;;3.70;3.10;;;17.10;99.90;;;;;;5016672;28;20403;-80
2022/07/03 01:02:43;;;;;;;4.63;2.95;;;17.00;99.90;;;;;;5024898;28;20051;-80
2022/07/03 01:05:42;;;;;;;3.08;2.75;;;17.00;99.90;;;;;;5021848;28;20124;-80
2022/07/03 01:08:46;;;;;;;2.55;2.35;;;16.90;99.90;;;;;;5026747;28;20053;-79
2022/07/03 01:11:21;;;;;;;3.88;3.30;;;16.80;99.90;;;;;;5025438;28;20056;-79
2022/07/03 01:14:01;;;;;;;4.47;3.42;;;16.80;99.90;;;;;;5024063;28;20050;-79
2022/07/03 01:16:37;;;;;;;3.42;2.78;;;16.70;99.90;;;;;;5020968;28;20137;-79
2022/07/03 01:19:25;;;;;;;3.00;1.92;;;16.70;99.90;;;;;;5022546;28;20041;-79
2022/07/03 01:22:14;;;;;;;3.25;2.72;;;16.70;99.90;;;;;;5024088;28;20049;-79
2022/07/03 01:24:52;;;;;;;3.92;2.83;;;16.60;99.90;;;;;;5027050;28;20042;-79
2022/07/03 01:27:26;;;;;;;4.55;2.65;;;16.60;99.90;;;;;;5027376;28;20048;-80
2022/07/03 01:29:59;;;;;;;1.95;1.73;;;16.50;99.90;;;;;;5026921;28;20033;-81
2022/07/03 01:32:41;;;;;;;4.10;1.90;;;16.40;99.90;;;;;;5026163;28;20049;-80
2022/07/03 01:35:11;;;;;;;5.63;2.53;;;16.30;99.90;;;;;;5020060;28;20048;-79
2022/07/03 01:37:39;;;;;;;6.90;2.58;;;16.30;99.90;;;;;;5022496;28;20154;-79
2022/07/03 01:40:06;;;;;;;4.63;2.17;;;16.30;99.90;;;;;;5023908;28;20049;-79
2022/07/03 01:42:34;;;;;;;5.70;2.40;;;16.20;99.90;;;;;;5025366;28;21499;-79
2022/07/03 01:45:00;;;;;;;4.53;3.25;;;16.10;99.90;;;;;;5024224;28;20096;-80
2022/07/03 01:47:28;;;;;;;4.32;3.35;;;16.10;99.90;;;;;;5027084;28;20484;-80
2022/07/03 01:49:54;;;;;;;4.07;3.42;;;16.10;99.90;;;;;;5034959;28;20097;-79
2022/07/03 01:52:23;;;;;;;4.97;3.60;;;16.10;99.90;;;;;;5028147;28;20060;-79
2022/07/03 01:54:51;;;;;;;3.95;2.70;;;16.00;99.90;;;;;;5032355;28;20138;-79
2022/07/03 01:57:17;;;;;;;4.57;4.18;;;16.00;99.90;;;;;;5029232;28;20131;-79
2022/07/03 01:59:42;;;;;;;3.10;2.80;;;15.90;99.90;;;;;;5026951;28;20050;-80
2022/07/03 02:02:27;;;;;;;5.32;3.53;;;15.90;99.90;;;;;;5020615;28;20128;-80
2022/07/03 02:05:07;;;;;;;9.32;4.20;;;15.80;99.90;;;;;;5032257;28;20041;-80
2022/07/03 02:07:47;;;;;;;4.47;4.07;;;15.70;99.90;;;;;;5023717;28;20084;-79
2022/07/03 02:10:18;;;;;;;5.35;4.22;;;15.60;99.90;;;;;;5029024;28;20057;-79
2022/07/03 02:12:48;;;;;;;7.82;3.92;;;15.50;99.90;;;;;;5008559;28;20061;-79
2022/07/03 02:15:18;;;;;;;6.43;3.88;;;15.50;99.90;;;;;;5026897;28;20447;-79
2022/07/03 02:17:46;;;;;;;7.28;4.43;;;15.50;99.90;;;;;;5015188;28;20138;-79
2022/07/03 02:20:16;;;;;;;5.78;4.57;;;15.40;99.90;;;;;;5026927;28;20037;-80
2022/07/03 02:22:46;;;;;;;4.78;4.25;;;15.40;99.90;;;;;;5025098;28;20060;-82
2022/07/03 02:25:36;;;;;;;5.10;4.40;;;15.40;99.90;;;;;;5027576;28;20048;-80
2022/07/03 02:28:06;;;;;;;6.03;5.47;;;15.30;99.90;;;;;;5035176;28;20064;-80
2022/07/03 02:30:36;;;;;;;6.15;5.13;;;15.30;99.90;;;;;;5027651;28;20068;-80
2022/07/03 02:33:02;;;;;;;5.35;4.85;;;15.40;99.90;;;;;;5030884;28;20053;-81
2022/07/03 02:35:33;;;;;;;6.15;4.97;;;15.30;99.90;;;;;;5032644;28;20060;-81
2022/07/03 02:38:08;;;;;;;5.63;5.13;;;15.30;99.90;;;;;;5039744;28;20046;-81
2022/07/03 02:40:43;;;;;;;6.28;5.70;;;15.20;99.90;;;;;;5021004;28;20042;-81
2022/07/03 02:43:21;;;;;;;6.30;5.30;;;15.20;99.90;;;;;;5014142;28;20087;-80
2022/07/03 02:45:57;;;;;;;7.07;6.47;;;15.10;99.90;;;;;;5025195;28;20037;-79
2022/07/03 02:48:35;;;;;;;5.30;4.80;;;15.10;99.90;;;;;;5021139;28;20038;-80
2022/07/03 02:51:13;;;;;;;6.78;6.05;;;15.00;99.90;;;;;;5029258;28;20057;-80
2022/07/03 02:53:48;;;;;;;6.05;5.03;;;15.00;99.90;;;;;;5032209;28;20487;-79
2022/07/03 02:57:00;;;;;;;6.57;5.68;;;15.00;99.90;;;;;;5016604;28;20038;-80
2022/07/03 02:59:54;;;;;;;6.53;5.90;;;15.00;99.90;;;;;;5011204;28;20045;-80
2022/07/03 03:02:31;;;;;;;7.50;5.40;;;14.90;99.90;;;;;;5015375;28;20068;-80
2022/07/03 03:05:01;;;;;;;7.00;4.25;;;14.90;99.90;;;;;;5035579;28;20125;-79
2022/07/03 03:07:34;;;;;;;5.05;4.63;;;14.80;99.90;;;;;;5033063;28;20045;-80
2022/07/03 03:09:59;;;;;;;5.03;4.63;;;14.80;99.90;;;;;;5028651;28;20494;-80
2022/07/03 03:12:40;;;;;;;4.82;4.43;;;14.70;99.90;;;;;;5028074;28;20060;-81
2022/07/03 03:15:08;;;;;;;4.88;4.30;;;14.60;99.90;;;;;;5029655;28;20127;-82
2022/07/03 03:17:50;;;;;;;3.50;3.20;;;14.60;99.90;;;;;;5028712;28;20399;-81
2022/07/03 03:20:18;;;;;;;4.88;3.53;;;14.50;99.90;;;;;;5030532;28;20063;-81
2022/07/03 03:23:14;;;;;;;4.78;3.38;;;14.40;99.90;;;;;;5036037;28;20041;-83
2022/07/03 03:25:40;;;;;;;5.88;4.70;;;14.40;99.90;;;;;;5033900;28;20064;-82
2022/07/03 03:28:05;;;;;;;4.70;4.28;;;14.40;99.90;;;;;;5029657;28;20042;-82
2022/07/03 03:30:31;;;;;;;5.65;5.15;;;14.40;99.90;;;;;;5044567;28;20036;-82
2022/07/03 03:32:57;;;;;;;4.80;4.40;;;14.40;99.90;;;;;;5036803;28;20069;-82
2022/07/03 03:35:22;;;;;;;3.95;3.63;;;14.40;99.90;;;;;;5033732;28;20152;-82
2022/07/03 03:37:48;;;;;;;6.28;4.45;;;14.40;99.90;;;;;;5034281;28;20029;-81
2022/07/03 03:40:18;;;;;;;4.70;3.30;;;14.40;99.90;;;;;;5028527;28;20060;-81
2022/07/03 03:42:43;;;;;;;4.35;3.60;;;14.40;99.90;;;;;;5036236;28;20048;-81
2022/07/03 03:45:09;;;;;;;5.22;3.50;;;14.40;99.90;;;;;;5031523;28;20038;-81
2022/07/03 03:47:35;;;;;;;4.75;3.83;;;14.40;99.90;;;;;;5038010;28;20038;-82
2022/07/03 03:53:53;;;;;;;6.03;4.65;;;14.50;99.90;;;;;;5028716;28;20049;-82
2022/07/03 04:00:30;;;;;;;7.45;6.85;;;14.50;99.90;;;;;;5051995;28;20037;-82
2022/07/03 04:03:59;;;;;;;;;;;;;;;;;;;;;
2022/07/03 04:07:17;;;;;;;6.55;5.85;;;14.80;99.90;;;;;;4991315;28;20125;-82
2022/07/03 04:10:08;;;;;;;7.13;6.57;;;15.00;99.90;;;;;;4974636;28;20030;-82
2022/07/03 04:17:09;;;;;;;5.75;5.18;;;15.10;99.90;;;;;;4938891;29;20046;-83
2022/07/03 04:20:08;;;;;;;5.20;4.80;;;15.40;99.90;;;;;;5003888;23;20176;-82
2022/07/03 04:23:40;;;;;;;8.60;5.32;;;15.50;99.90;;;;;;5013659;28;20393;-82
2022/07/03 05:18:27;;;;;;;4.55;4.22;;;15.70;99.90;;;;;;4843453;29;20148;-83
2022/07/03 05:25:47;;;;;;;7.72;5.90;;;15.60;99.90;;;;;;5006866;28;20076;-83
2022/07/03 05:29:14;;;;;;;6.90;4.63;;;15.60;99.90;;;;;;5020301;28;20053;-83
2022/07/03 05:33:06;;;;;;;;;;;;;;;;;;;;;
2022/07/03 05:36:32;;;;;;;6.22;5.57;;;15.90;99.90;;;;;;4955766;28;20506;-82
2022/07/03 05:39:37;;;;;;;6.30;5.32;;;16.10;99.90;;;;;;4996721;28;20073;-83
2022/07/03 05:42:20;;;;;;;7.30;6.70;;;16.20;99.90;;;;;;5009034;28;20152;-82
2022/07/03 05:45:30;;;;;;;6.10;5.20;;;16.40;99.90;;;;;;5028987;28;20377;-82
2022/07/03 05:48:41;;;;;;;6.22;5.45;;;16.60;99.90;;;;;;5034324;28;20036;-82
2022/07/03 05:51:27;;;;;;;;;;;;;;;;;;;;;
2022/07/03 05:54:28;;;;;;;6.57;5.03;;;16.90;99.90;;;;;;5014596;28;20056;-82
2022/07/03 05:57:11;;;;;;;5.32;4.82;;;17.10;99.90;;;;;;4995979;28;20524;-82
2022/07/03 05:59:37;;;;;;;4.65;4.20;;;17.20;99.90;;;;;;5005528;28;20037;-82
2022/07/03 06:02:08;;;;;;;5.03;3.60;;;17.40;99.90;;;;;;4994464;28;20072;-82
2022/07/03 06:04:36;;;;;;;4.35;3.25;;;17.60;99.90;;;;;;5009754;28;20038;-82
2022/07/03 06:07:25;;;;;;;6.68;4.55;;;17.70;99.90;;;;;;5010571;28;20095;-82
2022/07/03 06:10:18;;;;;;;3.95;2.05;;;17.90;99.90;;;;;;5007837;28;20045;-83
2022/07/03 06:13:17;;;;;;;4.22;1.42;;;18.10;99.90;;;;;;5008106;28;20038;-83
2022/07/03 06:16:08;;;;;;;3.50;1.48;;;18.40;99.90;;;;;;5025593;28;20048;-82
2022/07/03 06:18:44;;;;;;;2.85;1.02;;;18.60;99.90;;;;;;5010095;28;20077;-83
2022/07/03 06:21:12;;;;;;;2.90;1.00;;;18.90;99.90;;;;;;5009953;28;20497;-82
2022/07/03 06:23:40;;;;;;;2.80;0.50;;;19.10;99.90;;;;;;5011404;28;20052;-82
2022/07/03 06:26:14;;;;;;;2.80;0.57;;;19.40;99.90;;;;;;5012540;28;20038;-82
2022/07/03 06:28:40;;;;;;;3.78;0.82;;;19.60;99.90;;;;;;5029700;28;20052;-81
2022/07/03 06:31:15;;;;;;;1.13;0.70;;;19.60;99.90;;;;;;5013435;28;20464;-81
2022/07/03 06:33:40;;;;;;;2.13;0.77;;;19.50;99.90;;;;;;5012481;28;20518;-81
2022/07/03 06:36:06;;;;;;;2.45;0.65;;;19.60;99.90;;;;;;5014912;28;20037;-81
2022/07/03 06:38:58;;;;;;;2.08;0.50;;;19.80;99.90;;;;;;5013230;28;20030;-81
2022/07/03 06:41:23;;;;;;;1.70;0.70;;;20.30;99.90;;;;;;5025942;28;20500;-81
2022/07/03 06:43:49;;;;;;;3.28;0.63;;;20.70;99.90;;;;;;5011959;28;20091;-81
2022/07/03 06:46:14;;;;;;;2.30;0.47;;;20.90;99.90;;;;;;5012111;28;20030;-82
2022/07/03 06:48:40;;;;;;;2.58;0.60;;;21.20;99.90;;;;;;5012910;28;20041;-83
2022/07/03 06:51:06;;;;;;;1.67;0.32;;;21.50;99.90;;;;;;5009583;28;22008;-83
2022/07/03 06:53:31;;;;;;;0.60;0.20;;;21.70;99.90;;;;;;5009319;28;20037;-83
2022/07/03 06:55:57;;;;;;;3.92;0.20;;;21.70;99.90;;;;;;5006934;28;20050;-82
2022/07/03 06:58:22;;;;;;;2.15;0.20;;;21.80;99.90;;;;;;5012954;28;20041;-82
2022/07/03 07:00:48;;;;;;;1.05;0.30;;;22.00;99.90;;;;;;5011748;28;20124;-83
2022/07/03 07:03:13;;;;;;;2.45;0.38;;;22.00;99.90;;;;;;5015877;28;20076;-83
2022/07/03 07:05:39;;;;;;;1.33;0.28;;;22.00;99.90;;;;;;5017216;28;20045;-83
2022/07/03 07:08:04;;;;;;;1.02;0.30;;;21.90;99.90;;;;;;5019080;28;20124;-82
2022/07/03 07:10:30;;;;;;;2.05;0.30;;;21.90;99.90;;;;;;5018161;28;20105;-82
2022/07/03 07:12:55;;;;;;;2.58;0.45;;;22.00;99.90;;;;;;5012417;28;20042;-81
2022/07/03 07:15:21;;;;;;;1.85;0.40;;;22.10;99.90;;;;;;5032972;28;20040;-81
2022/07/03 07:17:47;;;;;;;1.52;0.20;;;22.20;99.90;;;;;;5010410;28;20048;-81
2022/07/03 07:20:12;;;;;;;1.13;0.30;;;22.20;99.90;;;;;;5012395;28;20042;-81
2022/07/03 07:22:38;;;;;;;0.95;0.40;;;22.20;99.90;;;;;;5015503;28;20045;-81
2022/07/03 07:25:04;;;;;;;1.83;0.30;;;22.20;99.90;;;;;;5013849;28;20034;-81
2022/07/03 07:27:29;;;;;;;2.40;0.45;;;22.10;99.90;;;;;;5000640;28;20036;-81
2022/07/03 07:29:55;;;;;;;2.60;0.28;;;22.00;99.90;;;;;;5002463;28;20132;-80
2022/07/03 07:32:20;;;;;;;3.13;0.30;;;22.00;99.90;;;;;;5009108;28;20080;-80
2022/07/03 07:34:46;;;;;;;1.75;0.20;;;22.00;99.90;;;;;;5027563;28;20066;-81
2022/07/03 07:37:11;;;;;;;3.50;0.30;;;22.20;99.90;;;;;;5009594;28;20036;-81
2022/07/03 07:39:37;;;;;;;5.57;1.05;;;22.60;99.90;;;;;;5013959;28;20045;-79
2022/07/03 07:42:03;;;;;;;2.60;0.30;;;22.90;99.90;;;;;;5017971;28;20030;-80
2022/07/03 07:44:28;;;;;;;1.55;0.20;;;23.10;99.90;;;;;;5017545;28;20049;-80
2022/07/03 07:46:54;;;;;;;2.33;0.20;;;23.10;99.90;;;;;;5030390;28;20036;-80
2022/07/03 07:49:19;;;;;;;4.13;0.35;;;23.00;99.80;;;;;;5020507;28;20068;-81
2022/07/03 07:51:45;;;;;;;1.13;0.43;;;23.10;99.90;;;;;;5043478;28;20060;-81
2022/07/03 07:54:10;;;;;;;2.33;0.30;;;23.10;99.90;;;;;;5020859;28;20053;-80
2022/07/03 07:56:36;;;;;;;2.42;0.40;;;23.30;99.90;;;;;;5011675;28;20061;-79
2022/07/03 07:59:01;;;;;;;1.45;0.30;;;23.60;99.90;;;;;;5014690;28;20056;-80
2022/07/03 08:06:55;;;;;;;1.23;0.40;;;23.90;99.90;;;;;;5033256;28;20045;-80
2022/07/03 08:09:21;;;;;;;1.50;0.40;;;23.90;99.40;;;;;;5014033;28;20034;-81
2022/07/03 08:11:47;;;;;;;1.00;0.40;;;24.00;99.80;;;;;;5001043;28;20033;-83
2022/07/03 08:14:12;;;;;;;1.45;0.30;;;24.10;99.00;;;;;;5019150;28;20029;-81
2022/07/03 08:16:41;;;;;;;4.75;1.55;;;24.40;98.60;;;;;;5019471;28;20064;-81
2022/07/03 08:19:06;;;;;;;2.17;0.40;;;24.60;96.60;;;;;;5017416;28;20048;-81
2022/07/03 08:21:32;;;;;;;1.58;0.30;;;24.70;95.90;;;;;;5014910;28;20049;-80
2022/07/03 08:23:58;;;;;;;1.02;0.40;;;24.80;95.50;;;;;;5013781;28;20128;-79
2022/07/03 08:26:23;;;;;;;1.23;0.20;;;25.10;94.50;;;;;;5028159;28;20034;-79
2022/07/03 08:28:49;;;;;;;2.30;0.70;;;25.20;93.20;;;;;;4997812;28;20044;-80
2022/07/03 08:31:15;;;;;;;2.67;0.52;;;25.30;93.70;;;;;;5014903;28;20033;-82
2022/07/03 08:33:40;;;;;;;1.60;0.57;;;25.20;94.70;;;;;;5035655;28;20048;-80
2022/07/03 08:36:06;;;;;;;2.85;0.30;;;25.20;94.70;;;;;;5018122;28;20081;-82
2022/07/03 08:38:33;;;;;;;1.63;0.30;;;25.40;93.40;;;;;;5015943;28;20044;-82
2022/07/03 08:41:00;;;;;;;0.82;0.43;;;25.20;94.00;;;;;;5016490;28;20045;-82
2022/07/03 08:43:26;;;;;;;1.48;0.30;;;25.30;94.00;;;;;;5015754;28;20045;-81
2022/07/03 08:45:53;;;;;;;1.67;0.30;;;25.40;92.90;;;;;;5017360;28;20130;-82
2022/07/03 08:48:20;;;;;;;1.42;0.30;;;25.40;93.50;;;;;;5017571;28;20052;-81
2022/07/03 08:50:46;;;;;;;0.93;0.22;;;25.30;94.70;;;;;;5017428;28;20033;-82
2022/07/03 08:53:12;;;;;;;1.20;0.35;;;25.30;94.30;;;;;;5017936;28;20053;-81
2022/07/03 08:55:38;;;;;;;2.65;0.32;;;25.20;93.70;;;;;;5016282;28;20197;-80
2022/07/03 08:58:05;;;;;;;2.08;0.50;;;25.00;92.70;;;;;;5014852;28;20108;-80
2022/07/03 09:00:32;;;;;;;1.17;0.40;;;24.80;94.00;;;;;;5016070;28;20077;-82
2022/07/03 09:03:00;;;;;;;3.17;0.60;;;24.60;94.00;;;;;;5014283;28;20519;-81
2022/07/03 09:05:25;;;;;;;2.95;0.75;;;24.60;94.30;;;;;;5019251;28;20069;-81
2022/07/03 09:07:51;;;;;;;1.63;0.30;;;24.90;94.20;;;;;;5017856;28;20356;-81
2022/07/03 09:10:18;;;;;;;1.67;0.30;;;25.00;93.10;;;;;;4999520;28;20253;-80
2022/07/03 09:12:46;;;;;;;1.35;0.35;;;25.00;92.20;;;;;;5015526;28;20045;-81
2022/07/03 09:15:12;;;;;;;2.35;0.30;;;24.90;92.20;;;;;;5014814;28;20134;-81
2022/07/03 09:17:38;;;;;;;2.85;0.60;;;24.80;91.50;;;;;;5016635;28;20121;-80
2022/07/03 09:20:06;;;;;;;2.08;0.85;;;24.50;91.20;;;;;;5014573;28;20069;-81
2022/07/03 09:22:34;;;;;;;1.38;0.40;;;24.30;91.20;;;;;;5018397;28;20033;-80
2022/07/03 09:25:10;;;;;;;337.60;248.75;;;24.10;92.40;;;;;;5014561;28;20555;-81
2022/07/03 09:27:37;;;;;;;58.75;43.92;;;24.20;92.70;;;;;;5015768;28;20121;-80
2022/07/03 09:30:04;;;;;;;1.10;0.60;;;24.40;93.30;;;;;;5012846;28;20049;-83
2022/07/03 09:32:34;;;;;;;4.25;1.73;;;24.50;93.20;;;;;;5018974;28;20040;-82
2022/07/03 09:35:21;;;;;;;1.30;0.30;;;24.60;93.10;;;;;;5015553;28;20092;-82
2022/07/03 09:37:53;;;;;;;2.92;0.60;;;24.60;93.50;;;;;;5012236;28;20072;-80
2022/07/03 09:40:19;;;;;;;1.55;0.70;;;24.70;93.70;;;;;;5022723;28;20488;-81
2022/07/03 09:43:01;;;;;;;2.90;0.30;;;25.00;94.50;;;;;;5014111;28;20077;-80
2022/07/03 09:45:28;;;;;;;2.33;0.45;;;25.20;93.20;;;;;;5011423;28;20086;-80
2022/07/03 09:47:54;;;;;;;1.55;0.40;;;25.40;92.50;;;;;;5018548;28;20066;-80
2022/07/03 09:50:19;;;;;;;1.30;0.30;;;25.40;91.80;;;;;;5017390;28;20407;-80
2022/07/03 09:52:47;;;;;;;1.77;0.43;;;25.50;91.30;;;;;;5019872;28;20041;-81
2022/07/03 09:55:12;;;;;;;5.95;0.57;;;25.60;90.70;;;;;;5037694;28;20045;-80
2022/07/03 09:57:40;;;;;;;1.88;0.32;;;25.50;89.70;;;;;;5019038;28;20129;-80
2022/07/03 10:00:09;;;;;;;1.95;0.40;;;25.70;90.30;;;;;;5015861;28;20510;-80
2022/07/03 10:02:35;;;;;;;1.80;0.40;;;26.00;90.70;;;;;;5018133;28;20403;-80
2022/07/03 10:05:13;;;;;;;1.63;0.20;;;26.10;83.60;;;;;;5017179;28;20025;-80
2022/07/03 10:08:03;;;;;;;1.73;0.40;;;26.10;81.00;;;;;;5020287;28;20048;-80
2022/07/03 10:10:32;;;;;;;3.33;0.28;;;26.20;84.30;;;;;;5018758;28;20041;-80
2022/07/03 10:12:58;;;;;;;3.00;0.38;;;26.40;84.50;;;;;;5019724;28;20049;-80
2022/07/03 10:15:25;;;;;;;1.15;0.30;;;26.70;82.60;;;;;;5021203;28;20109;-80
2022/07/03 10:17:53;;;;;;;1.77;0.30;;;26.70;81.20;;;;;;5020421;28;20076;-80
2022/07/03 10:20:34;;;;;;;2.97;0.40;;;26.70;76.90;;;;;;5019261;28;20041;-80
2022/07/03 10:23:00;;;;;;;1.38;0.40;;;26.40;77.40;;;;;;5006439;28;20050;-80
2022/07/03 10:25:26;;;;;;;3.03;0.20;;;26.00;80.20;;;;;;5000150;28;20038;-80
2022/07/03 10:27:51;;;;;;;1.55;0.50;;;26.00;78.90;;;;;;5000879;28;20038;-80
2022/07/03 10:30:22;;;;;;;3.13;0.40;;;26.00;79.00;;;;;;4999183;28;20049;-80
2022/07/03 10:32:51;;;;;;;0.90;0.20;;;26.40;79.80;;;;;;5017337;28;20046;-80
2022/07/03 10:35:26;;;;;;;0.75;0.20;;;26.30;77.70;;;;;;4999848;28;20050;-80
2022/07/03 10:38:01;;;;;;;1.23;0.17;;;26.20;79.00;;;;;;5000711;28;20038;-82
2022/07/03 10:46:37;;;;;;;0.82;0.17;;;26.30;74.80;;;;;;5002283;28;20045;-81
2022/07/03 10:49:07;;;;;;;2.35;0.30;;;26.10;73.90;;;;;;5001492;28;20120;-81
2022/07/03 10:51:52;;;;;;;2.30;0.10;;;26.00;76.70;;;;;;4985039;28;20431;-82
2022/07/03 10:54:48;;;;;;;2.28;0.20;;;25.80;73.70;;;;;;5021044;28;20392;-80
2022/07/03 10:57:18;;;;;;;1.00;0.15;;;25.70;74.90;;;;;;5015712;28;20069;-81
2022/07/03 10:59:46;;;;;;;1.45;0.10;;;25.80;73.90;;;;;;5019468;28;20052;-81
2022/07/03 11:02:22;;;;;;;1.15;0.22;;;25.90;73.60;;;;;;5020693;28;20057;-80
2022/07/03 11:04:57;;;;;;;1.83;0.20;;;26.30;71.30;;;;;;5003411;28;20504;-80
2022/07/03 11:07:23;;;;;;;0.77;0.20;;;26.80;71.30;;;;;;5018239;28;20034;-81
2022/07/03 11:10:14;;;;;;;1.10;0.10;;;27.30;70.80;;;;;;4996585;28;20046;-81
2022/07/03 11:12:59;;;;;;;1.65;0.10;;;27.90;66.90;;;;;;5002359;28;20041;-79
2022/07/03 11:15:32;;;;;;;1.55;0.20;;;28.30;65.30;;;;;;5010851;28;20041;-80
2022/07/03 11:18:11;;;;;;;0.70;0.30;;;28.00;63.50;;;;;;5020888;28;20476;-79
2022/07/03 11:20:39;;;;;;;1.35;0.65;;;27.20;61.30;;;;;;5020654;28;20093;-78
2022/07/03 11:23:26;;;;;;;1.83;0.43;;;26.70;63.30;;;;;;5000418;28;20095;-79
2022/07/03 11:25:55;;;;;;;0.65;0.20;;;26.30;63.60;;;;;;5019595;28;20095;-79
2022/07/03 11:28:32;;;;;;;1.05;0.10;;;26.10;63.90;;;;;;5023638;28;20041;-80
2022/07/03 11:31:07;;;;;;;0.55;0.10;;;25.80;64.00;;;;;;5022620;28;20076;-80
2022/07/03 11:33:51;;;;;;;3.20;1.08;;;25.60;65.00;;;;;;5021131;28;20056;-80
2022/07/03 11:36:16;;;;;;;1.98;0.20;;;26.40;66.50;;;;;;5017573;28;20411;-80
2022/07/03 11:39:09;;;;;;;2.08;0.20;;;26.80;66.50;;;;;;5012693;28;20053;-81
2022/07/03 11:41:34;;;;;;;1.80;0.10;;;27.30;66.00;;;;;;5015589;28;20187;-81
2022/07/03 11:44:02;;;;;;;2.70;0.20;;;27.60;66.70;;;;;;5016320;28;20152;-80
2022/07/03 11:46:29;;;;;;;0.80;0.10;;;28.30;67.40;;;;;;5013597;28;20124;-80
2022/07/03 11:49:10;;;;;;;1.45;0.13;;;28.90;64.10;;;;;;5023701;28;20403;-80
2022/07/03 11:51:39;;;;;;;1.15;0.10;;;29.50;64.00;;;;;;5023182;28;20069;-81
2022/07/03 11:54:05;;;;;;;1.23;0.15;;;29.30;59.70;;;;;;5025087;28;20046;-81
2022/07/03 11:56:32;;;;;;;0.50;0.10;;;28.80;58.70;;;;;;5039568;28;20096;-80
2022/07/03 11:59:00;;;;;;;4.22;0.40;;;28.70;60.00;;;;;;5025048;28;20084;-81
2022/07/03 12:01:25;;;;;;;2.40;0.20;;;29.10;61.70;;;;;;5021997;28;20049;-81
2022/07/03 12:04:02;;;;;;;0.22;0.10;;;29.70;62.40;;;;;;5019997;28;20037;-81
2022/07/03 12:06:38;;;;;;;0.95;0.00;;;30.40;60.00;;;;;;5022372;28;20052;-80
2022/07/03 12:09:34;;;;;;;0.85;0.10;;;30.90;58.60;;;;;;5021449;28;20045;-81
2022/07/03 12:12:02;;;;;;;1.65;0.10;;;30.80;56.20;;;;;;5021528;28;20052;-81
2022/07/03 12:14:34;;;;;;;0.70;0.10;;;29.90;55.30;;;;;;5022581;28;20041;-80
2022/07/03 12:17:00;;;;;;;0.30;0.30;;;29.50;56.10;;;;;;5004809;28;20562;-80
2022/07/03 12:19:25;;;;;;;0.30;0.10;;;29.30;54.60;;;;;;5020628;28;20049;-80
2022/07/03 12:21:51;;;;;;;0.88;0.10;;;29.10;57.50;;;;;;5017538;28;20040;-79
2022/07/03 12:24:17;;;;;;;0.28;0.10;;;29.30;59.10;;;;;;5008565;28;20045;-79
2022/07/03 12:26:42;;;;;;;0.80;0.10;;;29.90;59.80;;;;;;5011469;28;20033;-81
2022/07/03 12:29:14;;;;;;;0.90;0.10;;;30.50;58.80;;;;;;5023413;28;20403;-81
2022/07/03 12:31:46;;;;;;;0.40;0.15;;;30.80;55.50;;;;;;5021741;28;20046;-80
2022/07/03 12:34:14;;;;;;;0.60;0.10;;;30.50;56.60;;;;;;5022128;28;20045;-81
2022/07/03 12:36:40;;;;;;;0.43;0.15;;;30.20;55.80;;;;;;5021930;28;20045;-80
2022/07/03 12:39:06;;;;;;;1.10;0.30;;;29.40;55.30;;;;;;5010184;28;20551;-80
2022/07/03 12:41:32;;;;;;;0.90;0.15;;;29.20;57.60;;;;;;5015301;28;20091;-81
2022/07/03 12:43:59;;;;;;;1.38;0.25;;;29.60;58.00;;;;;;5037863;28;20103;-80
2022/07/03 12:46:28;;;;;;;106.22;93.20;;;29.70;56.60;;;;;;5013888;28;20064;-80
2022/07/03 12:48:56;;;;;;;1.42;1.02;;;29.60;56.70;;;;;;5020204;28;20056;-81
2022/07/03 12:51:42;;;;;;;3.97;1.77;;;29.10;54.90;;;;;;5039668;28;20049;-80
2022/07/03 12:54:08;;;;;;;2.53;0.98;;;28.90;57.40;;;;;;5005428;28;20050;-80
2022/07/03 12:56:33;;;;;;;3.67;2.78;;;28.90;57.30;;;;;;5036930;28;20037;-80
2022/07/03 12:59:17;;;;;;;2.40;1.58;;;28.80;57.30;;;;;;5002565;28;20447;-81
2022/07/03 13:02:03;;;;;;;1.35;0.20;;;28.50;56.90;;;;;;5003236;28;20048;-81
2022/07/03 13:04:37;;;;;;;2.40;0.45;;;28.10;60.60;;;;;;5014634;28;20044;-80
2022/07/03 13:07:07;;;;;;;1.23;0.20;;;27.60;61.30;;;;;;5019530;28;20492;-81
2022/07/03 13:09:34;;;;;;;2.83;0.20;;;27.20;63.40;;;;;;5023629;28;20059;-80
2022/07/03 13:12:00;;;;;;;0.60;0.20;;;26.90;62.80;;;;;;5021300;28;20392;-81
2022/07/03 13:14:26;;;;;;;2.30;0.30;;;26.90;64.00;;;;;;5018297;28;20147;-81
2022/07/03 13:16:53;;;;;;;4.43;0.30;;;26.90;63.60;;;;;;5003894;28;20042;-80
2022/07/03 13:19:23;;;;;;;3.03;0.32;;;27.20;64.50;;;;;;5019304;28;20073;-80
2022/07/03 13:21:51;;;;;;;0.70;0.20;;;27.80;65.40;;;;;;5018562;28;20580;-80
2022/07/03 13:24:18;;;;;;;2.72;0.40;;;28.20;63.00;;;;;;5017913;28;20038;-81
2022/07/03 13:26:44;;;;;;;2.42;0.22;;;28.00;60.60;;;;;;5017373;28;20046;-80
2022/07/03 13:29:10;;;;;;;1.73;0.40;;;27.70;62.30;;;;;;5018630;28;20049;-80
2022/07/03 13:31:36;;;;;;;1.95;0.38;;;27.40;63.10;;;;;;5020566;28;20086;-80
2022/07/03 13:34:02;;;;;;;0.88;0.15;;;27.50;64.40;;;;;;5018849;28;20126;-80
2022/07/03 13:36:29;;;;;;;1.55;0.75;;;27.80;64.00;;;;;;5038572;28;20049;-80
2022/07/03 13:38:57;;;;;;;2.58;0.25;;;28.30;62.90;;;;;;5020556;28;20047;-81
2022/07/03 13:41:23;;;;;;;1.90;0.35;;;28.50;61.00;;;;;;5020286;28;20141;-80
2022/07/03 13:43:50;;;;;;;4.35;0.30;;;28.70;59.60;;;;;;5036189;28;20125;-80
2022/07/03 13:46:17;;;;;;;1.27;0.20;;;28.80;62.00;;;;;;5017907;28;20041;-80
2022/07/03 13:48:42;;;;;;;2.33;0.20;;;28.90;60.00;;;;;;5018065;28;20040;-81
2022/07/03 13:51:08;;;;;;;2.15;0.20;;;28.50;58.80;;;;;;5031889;28;20045;-80
2022/07/03 13:53:34;;;;;;;2.08;0.10;;;27.80;59.70;;;;;;5018885;28;20045;-80
2022/07/03 13:56:00;;;;;;;0.90;0.20;;;27.20;58.10;;;;;;5020251;28;20120;-79
2022/07/03 13:58:26;;;;;;;1.20;0.43;;;26.90;60.10;;;;;;5015814;28;20076;-79
2022/07/03 14:00:52;;;;;;;1.58;0.30;;;26.40;61.80;;;;;;5016832;28;20038;-79
2022/07/03 14:03:18;;;;;;;0.73;0.10;;;26.10;61.40;;;;;;5012487;28;20046;-78
2022/07/03 14:05:44;;;;;;;1.25;0.10;;;25.70;62.20;;;;;;5006698;28;20052;-79
2022/07/03 14:08:11;;;;;;;3.35;0.30;;;25.40;61.50;;;;;;5011386;28;20129;-79
2022/07/03 14:10:37;;;;;;;0.95;0.13;;;25.20;63.30;;;;;;5017644;28;20048;-79
2022/07/03 14:13:03;;;;;;;3.47;0.20;;;24.70;62.90;;;;;;5015783;28;20069;-79
2022/07/03 14:15:28;;;;;;;3.70;0.20;;;24.40;65.10;;;;;;5036158;28;20033;-82
2022/07/03 14:17:54;;;;;;;2.00;0.20;;;24.00;67.00;;;;;;5015619;28;20081;-79
2022/07/03 14:20:19;;;;;;;3.97;0.20;;;23.50;70.60;;;;;;5004942;28;20443;-79
2022/07/03 14:22:45;;;;;;;2.90;0.30;;;23.10;76.60;;;;;;5031415;28;20033;-79
2022/07/03 14:25:11;;;;;;;3.70;1.65;;;22.60;85.40;;;;;;5013716;28;20134;-79
2022/07/03 14:33:05;;;;;;;89.32;63.60;;;19.30;99.90;;;;;;5025833;28;20524;-79
2022/07/03 14:35:30;;;;;;;6.15;1.70;;;18.40;99.90;;;;;;5024272;28;20037;-80
2022/07/03 14:37:56;;;;;;;37.15;32.80;;;17.90;99.90;;;;;;5003439;28;20063;-80
2022/07/03 14:40:21;;;;;;;2.50;0.93;;;17.60;99.90;;;;;;5002327;28;20073;-79
2022/07/03 14:42:47;;;;;;;2.25;0.50;;;17.50;99.90;;;;;;5006925;28;20041;-79